sensor_id;sensor_type;location;lat;lon;timestamp;pressure;altitude;pressure_sealevel;temperature;humidity
75555;BME280;66087;53.126;17.960;2024-03-06T00:00:40;101280.54;;;5.28;90.90
75555;BME280;66087;53.126;17.960;2024-03-06T00:03:26;101284.84;;;5.31;90.67
75555;BME280;66087;53.126;17.960;2024-03-06T00:05:53;101291.27;;;5.33;90.67
75555;BME280;66087;53.126;17.960;2024-03-06T00:08:20;101294.23;;;5.34;90.56
75555;BME280;66087;53.126;17.960;2024-03-06T00:10:47;101293.77;;;5.35;90.64
75555;BME280;66087;53.126;17.960;2024-03-06T00:13:14;101299.48;;;5.35;90.60
75555;BME280;66087;53.126;17.960;2024-03-06T00:15:40;101304.45;;;5.33;90.56
75555;BME280;66087;53.126;17.960;2024-03-06T00:18:07;101302.02;;;5.31;90.56
75555;BME280;66087;53.126;17.960;2024-03-06T00:20:34;101304.50;;;5.31;90.80
75555;BME280;66087;53.126;17.960;2024-03-06T00:23:01;101297.59;;;5.29;90.95
75555;BME280;66087;53.126;17.960;2024-03-06T00:25:28;101298.00;;;5.30;90.87
75555;BME280;66087;53.126;17.960;2024-03-06T00:27:55;101302.34;;;5.31;90.89
75555;BME280;66087;53.126;17.960;2024-03-06T00:30:22;101306.73;;;5.32;91.00
75555;BME280;66087;53.126;17.960;2024-03-06T00:32:48;101309.55;;;5.34;90.95
75555;BME280;66087;53.126;17.960;2024-03-06T00:35:15;101314.33;;;5.34;90.86
75555;BME280;66087;53.126;17.960;2024-03-06T00:37:42;101314.64;;;5.34;90.91
75555;BME280;66087;53.126;17.960;2024-03-06T00:40:09;101317.34;;;5.34;90.86
75555;BME280;66087;53.126;17.960;2024-03-06T00:42:37;101313.33;;;5.30;90.96
75555;BME280;66087;53.126;17.960;2024-03-06T00:45:05;101315.41;;;5.26;90.76
75555;BME280;66087;53.126;17.960;2024-03-06T00:47:32;101316.16;;;5.25;90.91
75555;BME280;66087;53.126;17.960;2024-03-06T00:50:01;101316.77;;;5.24;90.77
75555;BME280;66087;53.126;17.960;2024-03-06T00:52:28;101322.85;;;5.24;90.72
75555;BME280;66087;53.126;17.960;2024-03-06T00:54:54;101322.59;;;5.27;90.88
75555;BME280;66087;53.126;17.960;2024-03-06T00:57:22;101320.61;;;5.29;90.71
75555;BME280;66087;53.126;17.960;2024-03-06T00:59:49;101317.23;;;5.28;90.52
75555;BME280;66087;53.126;17.960;2024-03-06T01:02:16;101319.42;;;5.26;90.55
75555;BME280;66087;53.126;17.960;2024-03-06T01:04:42;101320.69;;;5.24;90.88
75555;BME280;66087;53.126;17.960;2024-03-06T01:07:09;101322.52;;;5.23;91.17
75555;BME280;66087;53.126;17.960;2024-03-06T01:09:36;101326.47;;;5.24;91.00
75555;BME280;66087;53.126;17.960;2024-03-06T01:12:03;101330.59;;;5.26;91.06
75555;BME280;66087;53.126;17.960;2024-03-06T01:14:29;101332.89;;;5.30;90.99
75555;BME280;66087;53.126;17.960;2024-03-06T01:16:57;101339.55;;;5.31;90.95
75555;BME280;66087;53.126;17.960;2024-03-06T01:19:24;101340.67;;;5.30;90.94
75555;BME280;66087;53.126;17.960;2024-03-06T01:21:51;101331.02;;;5.21;90.81
75555;BME280;66087;53.126;17.960;2024-03-06T01:24:17;101344.92;;;5.30;91.10
75555;BME280;66087;53.126;17.960;2024-03-06T01:26:44;101349.95;;;5.31;91.08
75555;BME280;66087;53.126;17.960;2024-03-06T01:29:11;101348.47;;;5.31;91.07
75555;BME280;66087;53.126;17.960;2024-03-06T01:31:37;101349.67;;;5.29;91.13
75555;BME280;66087;53.126;17.960;2024-03-06T01:34:04;101350.39;;;5.27;91.28
75555;BME280;66087;53.126;17.960;2024-03-06T01:36:31;101352.45;;;5.26;91.34
75555;BME280;66087;53.126;17.960;2024-03-06T01:38:58;101342.19;;;5.21;91.26
75555;BME280;66087;53.126;17.960;2024-03-06T01:41:24;101346.74;;;5.26;91.32
75555;BME280;66087;53.126;17.960;2024-03-06T01:43:54;101346.27;;;5.28;91.26
75555;BME280;66087;53.126;17.960;2024-03-06T01:46:21;101351.02;;;5.31;91.07
75555;BME280;66087;53.126;17.960;2024-03-06T01:48:48;101353.49;;;5.31;90.96
75555;BME280;66087;53.126;17.960;2024-03-06T01:51:14;101353.05;;;5.32;91.10
75555;BME280;66087;53.126;17.960;2024-03-06T01:53:41;101354.91;;;5.33;91.02
75555;BME280;66087;53.126;17.960;2024-03-06T01:56:08;101360.04;;;5.35;91.02
75555;BME280;66087;53.126;17.960;2024-03-06T01:58:38;101360.89;;;5.35;90.92
75555;BME280;66087;53.126;17.960;2024-03-06T02:01:06;101358.12;;;5.35;90.95
75555;BME280;66087;53.126;17.960;2024-03-06T02:03:33;101358.77;;;5.37;91.00
75555;BME280;66087;53.126;17.960;2024-03-06T02:06:02;101358.70;;;5.37;90.97
75555;BME280;66087;53.126;17.960;2024-03-06T02:08:30;101358.48;;;5.38;91.02
75555;BME280;66087;53.126;17.960;2024-03-06T02:10:57;101356.75;;;5.36;90.97
75555;BME280;66087;53.126;17.960;2024-03-06T02:13:24;101357.73;;;5.35;91.05
75555;BME280;66087;53.126;17.960;2024-03-06T02:15:51;101363.96;;;5.34;90.94
75555;BME280;66087;53.126;17.960;2024-03-06T02:18:18;101361.17;;;5.34;90.97
75555;BME280;66087;53.126;17.960;2024-03-06T02:20:45;101365.20;;;5.34;91.06
75555;BME280;66087;53.126;17.960;2024-03-06T02:23:13;101367.27;;;5.34;91.08
75555;BME280;66087;53.126;17.960;2024-03-06T02:25:41;101360.73;;;5.31;91.20
75555;BME280;66087;53.126;17.960;2024-03-06T02:28:08;101360.77;;;5.33;91.38
75555;BME280;66087;53.126;17.960;2024-03-06T02:30:35;101359.84;;;5.37;91.32
75555;BME280;66087;53.126;17.960;2024-03-06T02:33:03;101360.83;;;5.40;91.27
75555;BME280;66087;53.126;17.960;2024-03-06T02:35:30;101363.86;;;5.41;91.17
75555;BME280;66087;53.126;17.960;2024-03-06T02:37:59;101360.95;;;5.42;91.09
75555;BME280;66087;53.126;17.960;2024-03-06T02:40:26;101359.73;;;5.43;90.94
75555;BME280;66087;53.126;17.960;2024-03-06T02:42:52;101358.73;;;5.43;91.08
75555;BME280;66087;53.126;17.960;2024-03-06T02:45:19;101355.48;;;5.43;91.05
75555;BME280;66087;53.126;17.960;2024-03-06T02:47:46;101355.63;;;5.42;91.00
75555;BME280;66087;53.126;17.960;2024-03-06T02:50:12;101356.86;;;5.41;91.25
75555;BME280;66087;53.126;17.960;2024-03-06T02:52:39;101354.89;;;5.44;91.28
75555;BME280;66087;53.126;17.960;2024-03-06T02:55:06;101357.52;;;5.44;91.03
75555;BME280;66087;53.126;17.960;2024-03-06T02:57:33;101359.70;;;5.45;91.05
75555;BME280;66087;53.126;17.960;2024-03-06T03:00:00;101359.31;;;5.45;90.95
75555;BME280;66087;53.126;17.960;2024-03-06T03:02:27;101363.28;;;5.43;91.20
75555;BME280;66087;53.126;17.960;2024-03-06T03:04:55;101369.39;;;5.44;91.35
75555;BME280;66087;53.126;17.960;2024-03-06T03:07:21;101368.26;;;5.45;91.21
75555;BME280;66087;53.126;17.960;2024-03-06T03:09:50;101371.59;;;5.46;91.24
75555;BME280;66087;53.126;17.960;2024-03-06T03:12:16;101376.80;;;5.48;91.20
75555;BME280;66087;53.126;17.960;2024-03-06T03:14:43;101380.34;;;5.48;91.13
75555;BME280;66087;53.126;17.960;2024-03-06T03:17:10;101378.43;;;5.50;91.22
75555;BME280;66087;53.126;17.960;2024-03-06T03:19:37;101379.68;;;5.50;91.08
75555;BME280;66087;53.126;17.960;2024-03-06T03:22:06;101378.75;;;5.50;91.21
75555;BME280;66087;53.126;17.960;2024-03-06T03:24:34;101383.04;;;5.53;91.16
75555;BME280;66087;53.126;17.960;2024-03-06T03:27:01;101368.21;;;5.48;91.12
75555;BME280;66087;53.126;17.960;2024-03-06T03:29:29;101378.79;;;5.56;91.05
75555;BME280;66087;53.126;17.960;2024-03-06T03:31:56;101379.27;;;5.58;91.03
75555;BME280;66087;53.126;17.960;2024-03-06T03:34:23;101379.13;;;5.58;91.01
75555;BME280;66087;53.126;17.960;2024-03-06T03:36:52;101380.19;;;5.56;91.10
75555;BME280;66087;53.126;17.960;2024-03-06T03:39:18;101382.20;;;5.57;91.25
75555;BME280;66087;53.126;17.960;2024-03-06T03:41:48;101385.55;;;5.59;91.25
75555;BME280;66087;53.126;17.960;2024-03-06T03:44:18;101387.19;;;5.60;91.05
75555;BME280;66087;53.126;17.960;2024-03-06T03:46:45;101385.67;;;5.61;91.19
75555;BME280;66087;53.126;17.960;2024-03-06T03:49:12;101386.10;;;5.60;91.11
75555;BME280;66087;53.126;17.960;2024-03-06T03:51:40;101388.68;;;5.58;91.20
75555;BME280;66087;53.126;17.960;2024-03-06T03:54:07;101391.15;;;5.58;91.26
75555;BME280;66087;53.126;17.960;2024-03-06T03:56:33;101394.35;;;5.60;91.29
75555;BME280;66087;53.126;17.960;2024-03-06T03:59:00;101394.42;;;5.59;91.14
75555;BME280;66087;53.126;17.960;2024-03-06T04:01:27;101399.08;;;5.57;91.19
75555;BME280;66087;53.126;17.960;2024-03-06T04:03:55;101400.56;;;5.54;91.38
75555;BME280;66087;53.126;17.960;2024-03-06T04:06:22;101395.81;;;5.52;91.48
75555;BME280;66087;53.126;17.960;2024-03-06T04:08:49;101390.55;;;5.50;91.48
75555;BME280;66087;53.126;17.960;2024-03-06T04:11:15;101396.00;;;5.53;91.67
75555;BME280;66087;53.126;17.960;2024-03-06T04:13:42;101397.17;;;5.58;91.53
75555;BME280;66087;53.126;17.960;2024-03-06T04:16:09;101398.36;;;5.60;91.30
75555;BME280;66087;53.126;17.960;2024-03-06T04:18:36;101400.38;;;5.61;91.36
75555;BME280;66087;53.126;17.960;2024-03-06T04:21:05;101397.54;;;5.61;91.22
75555;BME280;66087;53.126;17.960;2024-03-06T04:23:33;101395.92;;;5.61;91.33
75555;BME280;66087;53.126;17.960;2024-03-06T04:26:00;101399.66;;;5.63;91.36
75555;BME280;66087;53.126;17.960;2024-03-06T04:28:27;101399.70;;;5.64;91.23
75555;BME280;66087;53.126;17.960;2024-03-06T04:30:56;101402.89;;;5.66;91.21
75555;BME280;66087;53.126;17.960;2024-03-06T04:33:23;101400.81;;;5.67;91.28
75555;BME280;66087;53.126;17.960;2024-03-06T04:35:49;101397.71;;;5.70;91.40
75555;BME280;66087;53.126;17.960;2024-03-06T04:38:16;101396.08;;;5.73;91.30
75555;BME280;66087;53.126;17.960;2024-03-06T04:40:43;101398.98;;;5.76;91.20
75555;BME280;66087;53.126;17.960;2024-03-06T04:43:11;101403.02;;;5.77;91.01
75555;BME280;66087;53.126;17.960;2024-03-06T04:45:37;101399.45;;;5.76;90.89
75555;BME280;66087;53.126;17.960;2024-03-06T04:48:05;101396.88;;;5.75;90.82
75555;BME280;66087;53.126;17.960;2024-03-06T04:50:33;101397.78;;;5.73;90.99
75555;BME280;66087;53.126;17.960;2024-03-06T04:53:00;101397.52;;;5.72;91.00
75555;BME280;66087;53.126;17.960;2024-03-06T04:55:27;101394.26;;;5.72;91.08
75555;BME280;66087;53.126;17.960;2024-03-06T04:57:54;101397.88;;;5.71;91.03
75555;BME280;66087;53.126;17.960;2024-03-06T05:00:21;101401.80;;;5.70;91.11
75555;BME280;66087;53.126;17.960;2024-03-06T05:02:48;101402.89;;;5.70;91.19
75555;BME280;66087;53.126;17.960;2024-03-06T05:05:17;101401.65;;;5.71;91.13
75555;BME280;66087;53.126;17.960;2024-03-06T05:07:44;101403.98;;;5.71;91.10
75555;BME280;66087;53.126;17.960;2024-03-06T05:10:11;101404.67;;;5.72;91.08
75555;BME280;66087;53.126;17.960;2024-03-06T05:12:38;101405.83;;;5.71;91.11
75555;BME280;66087;53.126;17.960;2024-03-06T05:15:05;101409.36;;;5.71;91.16
75555;BME280;66087;53.126;17.960;2024-03-06T05:17:32;101412.30;;;5.71;91.25
75555;BME280;66087;53.126;17.960;2024-03-06T05:19:59;101416.76;;;5.70;91.09
75555;BME280;66087;53.126;17.960;2024-03-06T05:22:26;101417.45;;;5.69;91.17
75555;BME280;66087;53.126;17.960;2024-03-06T05:24:52;101417.17;;;5.68;91.23
75555;BME280;66087;53.126;17.960;2024-03-06T05:27:22;101415.17;;;5.68;91.20
75555;BME280;66087;53.126;17.960;2024-03-06T05:29:49;101423.73;;;5.68;91.20
75555;BME280;66087;53.126;17.960;2024-03-06T05:32:16;101426.60;;;5.69;91.33
75555;BME280;66087;53.126;17.960;2024-03-06T05:34:43;101424.86;;;5.71;91.40
75555;BME280;66087;53.126;17.960;2024-03-06T05:37:12;101427.91;;;5.73;91.39
75555;BME280;66087;53.126;17.960;2024-03-06T05:39:39;101436.20;;;5.75;91.27
75555;BME280;66087;53.126;17.960;2024-03-06T05:42:08;101442.94;;;5.76;91.37
75555;BME280;66087;53.126;17.960;2024-03-06T05:44:35;101442.40;;;5.76;91.38
75555;BME280;66087;53.126;17.960;2024-03-06T05:47:02;101443.25;;;5.77;91.29
75555;BME280;66087;53.126;17.960;2024-03-06T05:49:29;101447.70;;;5.76;91.28
75555;BME280;66087;53.126;17.960;2024-03-06T05:51:57;101450.95;;;5.76;91.31
75555;BME280;66087;53.126;17.960;2024-03-06T05:54:24;101456.34;;;5.76;91.35
75555;BME280;66087;53.126;17.960;2024-03-06T05:56:51;101463.00;;;5.77;91.45
75555;BME280;66087;53.126;17.960;2024-03-06T05:59:18;101462.17;;;5.78;91.60
75555;BME280;66087;53.126;17.960;2024-03-06T06:01:45;101463.66;;;5.79;91.63
75555;BME280;66087;53.126;17.960;2024-03-06T06:04:13;101468.40;;;5.80;91.67
75555;BME280;66087;53.126;17.960;2024-03-06T06:06:41;101465.11;;;5.82;91.65
75555;BME280;66087;53.126;17.960;2024-03-06T06:09:08;101465.14;;;5.84;91.68
75555;BME280;66087;53.126;17.960;2024-03-06T06:11:43;101467.42;;;5.85;91.81
75555;BME280;66087;53.126;17.960;2024-03-06T06:14:10;101467.42;;;5.85;91.53
75555;BME280;66087;53.126;17.960;2024-03-06T06:16:39;101469.33;;;5.85;91.61
75555;BME280;66087;53.126;17.960;2024-03-06T06:19:07;101466.77;;;5.84;91.65
75555;BME280;66087;53.126;17.960;2024-03-06T06:21:34;101471.26;;;5.85;91.78
75555;BME280;66087;53.126;17.960;2024-03-06T06:24:03;101471.02;;;5.87;91.79
75555;BME280;66087;53.126;17.960;2024-03-06T06:26:31;101475.50;;;5.87;91.60
75555;BME280;66087;53.126;17.960;2024-03-06T06:28:58;101476.02;;;5.86;91.86
75555;BME280;66087;53.126;17.960;2024-03-06T06:31:26;101482.11;;;5.86;92.02
75555;BME280;66087;53.126;17.960;2024-03-06T06:33:53;101482.46;;;5.88;91.91
75555;BME280;66087;53.126;17.960;2024-03-06T06:36:20;101485.14;;;5.88;91.81
75555;BME280;66087;53.126;17.960;2024-03-06T06:38:47;101484.18;;;5.86;91.90
75555;BME280;66087;53.126;17.960;2024-03-06T06:41:17;101487.98;;;5.87;91.95
75555;BME280;66087;53.126;17.960;2024-03-06T06:43:44;101474.81;;;5.80;92.12
75555;BME280;66087;53.126;17.960;2024-03-06T06:46:11;101486.52;;;5.91;92.18
75555;BME280;66087;53.126;17.960;2024-03-06T06:48:38;101484.77;;;5.92;92.03
75555;BME280;66087;53.126;17.960;2024-03-06T06:51:06;101487.56;;;5.93;91.93
75555;BME280;66087;53.126;17.960;2024-03-06T06:53:33;101488.30;;;5.95;92.04
75555;BME280;66087;53.126;17.960;2024-03-06T06:55:59;101486.84;;;5.95;92.18
75555;BME280;66087;53.126;17.960;2024-03-06T06:58:26;101486.30;;;5.96;92.11
75555;BME280;66087;53.126;17.960;2024-03-06T07:00:53;101489.59;;;5.97;92.22
75555;BME280;66087;53.126;17.960;2024-03-06T07:03:20;101488.70;;;6.00;92.10
75555;BME280;66087;53.126;17.960;2024-03-06T07:05:50;101490.84;;;6.03;92.23
75555;BME280;66087;53.126;17.960;2024-03-06T07:08:18;101491.41;;;6.05;92.24
75555;BME280;66087;53.126;17.960;2024-03-06T07:10:46;101492.76;;;6.07;92.09
75555;BME280;66087;53.126;17.960;2024-03-06T07:13:12;101494.71;;;6.08;92.15
75555;BME280;66087;53.126;17.960;2024-03-06T07:15:39;101499.22;;;6.10;92.28
75555;BME280;66087;53.126;17.960;2024-03-06T07:18:06;101501.98;;;6.09;92.27
75555;BME280;66087;53.126;17.960;2024-03-06T07:20:33;101502.22;;;6.09;92.42
75555;BME280;66087;53.126;17.960;2024-03-06T07:23:00;101506.13;;;6.08;92.64
75555;BME280;66087;53.126;17.960;2024-03-06T07:25:27;101504.15;;;6.06;92.73
75555;BME280;66087;53.126;17.960;2024-03-06T07:27:54;101503.91;;;6.05;92.80
75555;BME280;66087;53.126;17.960;2024-03-06T07:30:21;101505.26;;;6.07;92.78
75555;BME280;66087;53.126;17.960;2024-03-06T07:32:49;101507.70;;;6.10;93.04
75555;BME280;66087;53.126;17.960;2024-03-06T07:35:18;101514.19;;;6.10;93.18
75555;BME280;66087;53.126;17.960;2024-03-06T07:37:44;101512.66;;;6.11;93.32
75555;BME280;66087;53.126;17.960;2024-03-06T07:40:11;101517.98;;;6.10;93.60
75555;BME280;66087;53.126;17.960;2024-03-06T07:42:38;101519.05;;;6.10;93.91
75555;BME280;66087;53.126;17.960;2024-03-06T07:45:06;101524.84;;;6.10;93.89
75555;BME280;66087;53.126;17.960;2024-03-06T07:47:35;101524.81;;;6.13;93.78
75555;BME280;66087;53.126;17.960;2024-03-06T07:50:05;101529.14;;;6.16;93.74
75555;BME280;66087;53.126;17.960;2024-03-06T07:52:33;101529.91;;;6.18;93.71
75555;BME280;66087;53.126;17.960;2024-03-06T07:54:59;101535.67;;;6.19;93.64
75555;BME280;66087;53.126;17.960;2024-03-06T07:57:26;101538.08;;;6.21;93.34
75555;BME280;66087;53.126;17.960;2024-03-06T07:59:53;101537.24;;;6.22;93.36
75555;BME280;66087;53.126;17.960;2024-03-06T08:02:21;101538.30;;;6.24;93.43
75555;BME280;66087;53.126;17.960;2024-03-06T08:04:49;101540.27;;;6.26;93.47
75555;BME280;66087;53.126;17.960;2024-03-06T08:07:16;101542.15;;;6.27;93.56
75555;BME280;66087;53.126;17.960;2024-03-06T08:09:42;101541.53;;;6.28;93.79
75555;BME280;66087;53.126;17.960;2024-03-06T08:12:09;101544.66;;;6.29;93.54
75555;BME280;66087;53.126;17.960;2024-03-06T08:14:34;101547.32;;;6.27;93.59
75555;BME280;66087;53.126;17.960;2024-03-06T08:17:01;101547.70;;;6.27;93.58
75555;BME280;66087;53.126;17.960;2024-03-06T08:19:28;101549.15;;;6.30;93.52
75555;BME280;66087;53.126;17.960;2024-03-06T08:21:54;101551.45;;;6.33;93.30
75555;BME280;66087;53.126;17.960;2024-03-06T08:24:21;101548.78;;;6.35;93.31
75555;BME280;66087;53.126;17.960;2024-03-06T08:26:47;101551.29;;;6.37;93.40
75555;BME280;66087;53.126;17.960;2024-03-06T08:29:15;101552.80;;;6.36;93.27
75555;BME280;66087;53.126;17.960;2024-03-06T08:31:41;101556.44;;;6.36;93.37
75555;BME280;66087;53.126;17.960;2024-03-06T08:34:07;101558.85;;;6.37;93.47
75555;BME280;66087;53.126;17.960;2024-03-06T08:36:45;101556.30;;;6.37;93.41
75555;BME280;66087;53.126;17.960;2024-03-06T08:39:12;101558.42;;;6.39;93.30
75555;BME280;66087;53.126;17.960;2024-03-06T08:41:41;101564.52;;;6.39;93.28
75555;BME280;66087;53.126;17.960;2024-03-06T08:44:07;101549.02;;;6.31;93.19
75555;BME280;66087;53.126;17.960;2024-03-06T08:46:33;101564.44;;;6.38;93.26
75555;BME280;66087;53.126;17.960;2024-03-06T08:48:59;101567.25;;;6.36;93.32
75555;BME280;66087;53.126;17.960;2024-03-06T08:51:25;101567.02;;;6.36;93.04
75555;BME280;66087;53.126;17.960;2024-03-06T08:53:51;101567.16;;;6.36;92.86
75555;BME280;66087;53.126;17.960;2024-03-06T08:56:17;101572.91;;;6.38;92.66
75555;BME280;66087;53.126;17.960;2024-03-06T08:58:44;101570.86;;;6.43;92.55
75555;BME280;66087;53.126;17.960;2024-03-06T09:01:10;101575.88;;;6.48;92.28
75555;BME280;66087;53.126;17.960;2024-03-06T09:03:37;101569.61;;;6.51;91.87
75555;BME280;66087;53.126;17.960;2024-03-06T09:06:04;101572.53;;;6.55;91.65
75555;BME280;66087;53.126;17.960;2024-03-06T09:08:31;101570.65;;;6.57;91.29
75555;BME280;66087;53.126;17.960;2024-03-06T09:10:57;101576.50;;;6.64;91.00
75555;BME280;66087;53.126;17.960;2024-03-06T09:13:26;101574.04;;;6.74;91.33
75555;BME280;66087;53.126;17.960;2024-03-06T09:15:52;101574.86;;;6.86;91.06
75555;BME280;66087;53.126;17.960;2024-03-06T09:18:18;101575.80;;;6.95;90.63
75555;BME280;66087;53.126;17.960;2024-03-06T09:20:44;101576.66;;;7.05;90.57
75555;BME280;66087;53.126;17.960;2024-03-06T09:23:10;101577.91;;;7.15;89.91
75555;BME280;66087;53.126;17.960;2024-03-06T09:25:36;101577.36;;;7.25;89.66
75555;BME280;66087;53.126;17.960;2024-03-06T09:28:03;101580.82;;;7.33;89.60
75555;BME280;66087;53.126;17.960;2024-03-06T09:30:30;101584.62;;;7.39;89.38
75555;BME280;66087;53.126;17.960;2024-03-06T09:32:56;101586.63;;;7.49;89.32
75555;BME280;66087;53.126;17.960;2024-03-06T09:35:22;101585.13;;;7.63;88.39
75555;BME280;66087;53.126;17.960;2024-03-06T09:37:49;101580.55;;;7.79;88.00
75555;BME280;66087;53.126;17.960;2024-03-06T09:40:23;101572.38;;;7.87;87.17
75555;BME280;66087;53.126;17.960;2024-03-06T09:42:50;101587.21;;;8.09;87.37
75555;BME280;66087;53.126;17.960;2024-03-06T09:45:17;101584.95;;;8.20;87.42
75555;BME280;66087;53.126;17.960;2024-03-06T09:47:43;101588.79;;;8.29;86.77
75555;BME280;66087;53.126;17.960;2024-03-06T09:50:11;101590.83;;;8.37;86.87
75555;BME280;66087;53.126;17.960;2024-03-06T09:52:43;101592.70;;;8.45;86.99
75555;BME280;66087;53.126;17.960;2024-03-06T09:55:13;101589.48;;;8.48;86.12
75555;BME280;66087;53.126;17.960;2024-03-06T09:57:40;101591.41;;;8.47;85.08
75555;BME280;66087;53.126;17.960;2024-03-06T10:00:07;101590.25;;;8.48;84.71
75555;BME280;66087;53.126;17.960;2024-03-06T10:02:39;101592.77;;;8.43;84.50
75555;BME280;66087;53.126;17.960;2024-03-06T10:05:20;101593.15;;;8.38;84.98
75555;BME280;66087;53.126;17.960;2024-03-06T10:07:47;101595.45;;;8.29;85.81
75555;BME280;66087;53.126;17.960;2024-03-06T10:10:15;101595.20;;;8.23;86.27
75555;BME280;66087;53.126;17.960;2024-03-06T10:12:42;101599.49;;;8.20;85.13
75555;BME280;66087;53.126;17.960;2024-03-06T10:15:09;101599.58;;;8.21;85.41
75555;BME280;66087;53.126;17.960;2024-03-06T10:17:38;101603.95;;;8.17;85.42
75555;BME280;66087;53.126;17.960;2024-03-06T10:20:21;101601.90;;;8.14;85.62
75555;BME280;66087;53.126;17.960;2024-03-06T10:22:50;101603.22;;;8.14;85.11
75555;BME280;66087;53.126;17.960;2024-03-06T10:25:19;101606.98;;;8.19;85.38
75555;BME280;66087;53.126;17.960;2024-03-06T10:27:45;101607.67;;;8.28;84.84
75555;BME280;66087;53.126;17.960;2024-03-06T10:30:12;101610.50;;;8.37;84.40
75555;BME280;66087;53.126;17.960;2024-03-06T10:32:42;101612.85;;;8.40;84.02
75555;BME280;66087;53.126;17.960;2024-03-06T10:35:18;101614.61;;;8.38;84.76
75555;BME280;66087;53.126;17.960;2024-03-06T10:37:45;101617.02;;;8.32;84.59
75555;BME280;66087;53.126;17.960;2024-03-06T10:40:15;101616.55;;;8.27;84.78
75555;BME280;66087;53.126;17.960;2024-03-06T10:42:44;101617.42;;;8.24;84.30
75555;BME280;66087;53.126;17.960;2024-03-06T10:45:13;101621.09;;;8.20;84.12
75555;BME280;66087;53.126;17.960;2024-03-06T10:47:45;101621.76;;;8.17;84.05
75555;BME280;66087;53.126;17.960;2024-03-06T10:50:14;101624.27;;;8.15;84.11
75555;BME280;66087;53.126;17.960;2024-03-06T10:52:43;101628.65;;;8.17;84.38
75555;BME280;66087;53.126;17.960;2024-03-06T10:55:11;101630.41;;;8.15;84.00
75555;BME280;66087;53.126;17.960;2024-03-06T10:57:39;101628.87;;;8.10;83.64
75555;BME280;66087;53.126;17.960;2024-03-06T11:00:07;101631.08;;;8.08;84.24
75555;BME280;66087;53.126;17.960;2024-03-06T11:02:33;101632.89;;;8.04;83.27
75555;BME280;66087;53.126;17.960;2024-03-06T11:05:02;101629.09;;;7.97;83.67
75555;BME280;66087;53.126;17.960;2024-03-06T11:07:32;101632.19;;;7.93;84.17
75555;BME280;66087;53.126;17.960;2024-03-06T11:09:59;101633.17;;;7.92;83.66
75555;BME280;66087;53.126;17.960;2024-03-06T11:12:37;101630.71;;;7.92;83.81
75555;BME280;66087;53.126;17.960;2024-03-06T11:15:15;101631.94;;;7.97;84.03
75555;BME280;66087;53.126;17.960;2024-03-06T11:17:43;101634.59;;;8.06;83.45
75555;BME280;66087;53.126;17.960;2024-03-06T11:20:16;101631.28;;;8.12;83.60
75555;BME280;66087;53.126;17.960;2024-03-06T11:23:04;101634.93;;;8.18;82.36
75555;BME280;66087;53.126;17.960;2024-03-06T11:25:55;101630.67;;;8.25;82.27
75555;BME280;66087;53.126;17.960;2024-03-06T11:28:27;101632.81;;;8.28;81.89
75555;BME280;66087;53.126;17.960;2024-03-06T11:30:58;101631.59;;;8.33;82.39
75555;BME280;66087;53.126;17.960;2024-03-06T11:33:40;101635.52;;;8.37;82.02
75555;BME280;66087;53.126;17.960;2024-03-06T11:36:20;101631.17;;;8.37;80.98
75555;BME280;66087;53.126;17.960;2024-03-06T11:38:52;101625.98;;;8.30;80.92
75555;BME280;66087;53.126;17.960;2024-03-06T11:41:20;101635.55;;;8.30;80.62
75555;BME280;66087;53.126;17.960;2024-03-06T11:43:48;101633.32;;;8.25;79.56
75555;BME280;66087;53.126;17.960;2024-03-06T11:46:16;101634.13;;;8.27;80.36
75555;BME280;66087;53.126;17.960;2024-03-06T11:48:55;101638.71;;;8.33;80.37
75555;BME280;66087;53.126;17.960;2024-03-06T11:51:23;101639.75;;;8.42;79.96
75555;BME280;66087;53.126;17.960;2024-03-06T11:53:52;101640.25;;;8.52;80.03
75555;BME280;66087;53.126;17.960;2024-03-06T11:56:21;101641.20;;;8.60;79.16
75555;BME280;66087;53.126;17.960;2024-03-06T11:58:49;101640.54;;;8.69;79.45
75555;BME280;66087;53.126;17.960;2024-03-06T12:01:15;101643.55;;;8.76;79.49
75555;BME280;66087;53.126;17.960;2024-03-06T12:03:42;101641.25;;;8.79;79.07
75555;BME280;66087;53.126;17.960;2024-03-06T12:06:09;101641.86;;;8.79;78.48
75555;BME280;66087;53.126;17.960;2024-03-06T12:08:35;101644.80;;;8.78;78.84
75555;BME280;66087;53.126;17.960;2024-03-06T12:11:04;101647.52;;;8.73;78.79
75555;BME280;66087;53.126;17.960;2024-03-06T12:13:32;101648.43;;;8.70;79.40
75555;BME280;66087;53.126;17.960;2024-03-06T12:15:58;101648.11;;;8.69;79.16
75555;BME280;66087;53.126;17.960;2024-03-06T12:18:24;101648.48;;;8.62;79.09
75555;BME280;66087;53.126;17.960;2024-03-06T12:20:52;101653.35;;;8.60;78.90
75555;BME280;66087;53.126;17.960;2024-03-06T12:23:23;101649.85;;;8.65;79.25
75555;BME280;66087;53.126;17.960;2024-03-06T12:26:05;101650.29;;;8.69;78.79
75555;BME280;66087;53.126;17.960;2024-03-06T12:28:32;101649.36;;;8.71;78.23
75555;BME280;66087;53.126;17.960;2024-03-06T12:30:58;101650.20;;;8.69;79.08
75555;BME280;66087;53.126;17.960;2024-03-06T12:33:28;101651.70;;;8.64;78.40
75555;BME280;66087;53.126;17.960;2024-03-06T12:36:08;101652.03;;;8.66;79.39
75555;BME280;66087;53.126;17.960;2024-03-06T12:38:37;101655.83;;;8.66;78.04
75555;BME280;66087;53.126;17.960;2024-03-06T12:41:03;101654.73;;;8.60;78.45
75555;BME280;66087;53.126;17.960;2024-03-06T12:43:31;101655.19;;;8.52;78.00
75555;BME280;66087;53.126;17.960;2024-03-06T12:45:57;101655.09;;;8.43;78.60
75555;BME280;66087;53.126;17.960;2024-03-06T12:48:24;101643.36;;;8.28;77.80
75555;BME280;66087;53.126;17.960;2024-03-06T12:50:52;101656.46;;;8.34;77.73
75555;BME280;66087;53.126;17.960;2024-03-06T12:53:21;101660.11;;;8.36;77.58